SSI weather

Public forecast

Using degrees Fahrenheit for public forecast. Weather courtesy of forecast.io.

Current aviation weather report (METAR) for St Simons Island Airport

Retrieved 2020/08/14 08:53 UTC (59 minutes ago):

KSSI 140853Z AUTO 24009KT 10SM CLR 26/23 A2997 RMK AO2 SLP151 T02560233 56003

Aviation forecast (TAF) for St Simons Island Airport

Retrieved 2020/08/14 06:22 UTC (3 hours ago):

TAF KSSI 140520Z 1406/1506 21006KT P6SM FEW030 BKN200 FM141600 22007KT P6SM VCSH SCT035 SCT250 FM141900 17009KT P6SM VCTS BKN040CB BKN250 TEMPO 1420/1424 VRB15G25KT 3SM TSRA OVC030CB FM150200 22004KT P6SM SCT050 BKN150 BKN250